createdAt,value
2022-11-22T00:01:16.540Z,94870.31
2022-11-22T00:03:43.269Z,94868.72
2022-11-22T00:06:09.686Z,94869.50
2022-11-22T00:08:36.145Z,94872.75
2022-11-22T00:11:02.583Z,94874.34
2022-11-22T00:13:29.269Z,94867.72
2022-11-22T00:16:02.930Z,94853.47
2022-11-22T00:18:29.590Z,94851.88
2022-11-22T00:20:56.261Z,94856.88
2022-11-22T00:23:22.818Z,94849.09
2022-11-22T00:25:49.238Z,94842.50
2022-11-22T00:28:15.690Z,94825.41
2022-11-22T00:30:42.112Z,94825.63
2022-11-22T00:33:08.578Z,94828.41
2022-11-22T00:35:34.990Z,94837.28
2022-11-22T00:38:01.413Z,94837.28
2022-11-22T00:40:27.793Z,94819.25
2022-11-22T00:42:54.248Z,94807.03
2022-11-22T00:45:20.663Z,94810.66
2022-11-22T00:47:47.106Z,94812.84
2022-11-22T00:50:13.558Z,94825.28
2022-11-22T00:52:40.286Z,94812.06
2022-11-22T00:55:07.031Z,94811.84
2022-11-22T00:57:33.467Z,94822.28
2022-11-22T00:59:59.902Z,94818.47
2022-11-22T01:02:26.512Z,94836.72
2022-11-22T01:04:52.936Z,94825.53
2022-11-22T01:07:19.369Z,94821.72
2022-11-22T01:09:45.869Z,94823.94
2022-11-22T01:12:12.343Z,94815.72
2022-11-22T01:14:38.803Z,94824.13
2022-11-22T01:17:05.200Z,94838.16
2022-11-22T01:19:31.908Z,94837.97
2022-11-22T01:21:58.494Z,94833.34
2022-11-22T01:24:24.929Z,94834.56
2022-11-22T01:26:51.375Z,94839.56
2022-11-22T01:29:17.798Z,94837.19
2022-11-22T01:31:44.369Z,94826.78
2022-11-22T01:34:11.168Z,94821.16
2022-11-22T01:36:37.605Z,94831.00
2022-11-22T01:39:04.112Z,94819.75
2022-11-22T01:41:30.612Z,94822.16
2022-11-22T01:43:57.052Z,94830.00
2022-11-22T01:46:26.506Z,94825.19
2022-11-22T01:48:54.578Z,94842.06
2022-11-22T01:51:24.591Z,94845.06
2022-11-22T01:53:51.056Z,94843.66
2022-11-22T01:56:17.577Z,94843.06
2022-11-22T01:58:44.374Z,94842.66
2022-11-22T02:01:10.888Z,94838.84
2022-11-22T02:03:37.610Z,94844.66
2022-11-22T02:06:04.019Z,94855.91
2022-11-22T02:08:49.198Z,94860.75
2022-11-22T02:11:15.656Z,94865.13
2022-11-22T02:13:42.702Z,94871.16
2022-11-22T02:16:09.612Z,94865.34
2022-11-22T02:18:36.317Z,94860.13
2022-11-22T02:21:03.210Z,94852.50
2022-11-22T02:23:42.291Z,94859.91
2022-11-22T02:26:08.713Z,94867.56
2022-11-22T02:28:37.376Z,94870.78
2022-11-22T02:31:03.824Z,94862.34
2022-11-22T02:33:30.271Z,94873.97
2022-11-22T02:35:56.838Z,94874.97
2022-11-22T02:38:24.908Z,94869.38
2022-11-22T02:40:59.825Z,94875.38
2022-11-22T02:43:30.298Z,94873.97
2022-11-22T02:46:02.505Z,94868.16
2022-11-22T02:48:28.909Z,94871.16
2022-11-22T02:50:55.356Z,94878.00
2022-11-22T02:53:21.763Z,94885.44
2022-11-22T02:55:48.206Z,94887.03
2022-11-22T02:58:14.623Z,94885.84
2022-11-22T03:00:41.274Z,94889.84
2022-11-22T03:03:07.734Z,94890.44
2022-11-22T03:05:34.183Z,94894.66
2022-11-22T03:08:00.648Z,94892.88
2022-11-22T03:10:27.105Z,94894.28
2022-11-22T03:12:53.556Z,94888.66
2022-11-22T03:15:20.039Z,94890.84
2022-11-22T03:17:46.449Z,94886.44
2022-11-22T03:20:13.055Z,94891.25
2022-11-22T03:22:39.444Z,94890.84
2022-11-22T03:25:06.135Z,94895.06
2022-11-22T03:27:32.549Z,94894.28
2022-11-22T03:29:59.050Z,94895.28
2022-11-22T03:32:25.448Z,94902.53
2022-11-22T03:34:51.892Z,94891.69
2022-11-22T03:37:18.386Z,94899.91
2022-11-22T03:39:44.769Z,94907.31
2022-11-22T03:42:13.645Z,94912.34
2022-11-22T03:44:43.182Z,94912.13
2022-11-22T03:47:09.626Z,94923.38
2022-11-22T03:49:36.025Z,94920.19
2022-11-22T03:52:02.476Z,94930.63
2022-11-22T03:54:28.917Z,94939.44
2022-11-22T03:56:55.347Z,94928.41
2022-11-22T03:59:21.780Z,94931.44
2022-11-22T04:01:48.378Z,94936.66
2022-11-22T04:04:14.911Z,94929.78
2022-11-22T04:06:41.415Z,94937.63
2022-11-22T04:09:09.980Z,94938.22
2022-11-22T04:11:36.475Z,94938.44
2022-11-22T04:14:21.513Z,94937.81
2022-11-22T04:16:47.969Z,94941.81
2022-11-22T04:19:14.376Z,94935.97
2022-11-22T04:21:40.820Z,94938.59
2022-11-22T04:24:28.889Z,94938.59
2022-11-22T04:26:55.411Z,94946.56
2022-11-22T04:29:21.946Z,94948.16
2022-11-22T04:32:07.614Z,94948.97
2022-11-22T04:34:34.358Z,94953.56
2022-11-22T04:37:00.999Z,94955.56
2022-11-22T04:39:27.639Z,94950.16
2022-11-22T04:42:14.977Z,94956.19
2022-11-22T04:44:41.877Z,94969.22
2022-11-22T04:47:12.008Z,94960.56
2022-11-22T04:49:38.619Z,94959.84
2022-11-22T04:52:23.677Z,94956.19
2022-11-22T04:54:50.107Z,94965.41
2022-11-22T04:57:16.565Z,94962.22
2022-11-22T04:59:42.999Z,94951.78
2022-11-22T05:02:09.429Z,94959.00
2022-11-22T05:04:35.945Z,94955.03
2022-11-22T05:07:02.403Z,94949.41
2022-11-22T05:09:29.084Z,94952.25
2022-11-22T05:11:55.768Z,94949.44
2022-11-22T05:14:22.195Z,94953.03
2022-11-22T05:16:48.641Z,94950.63
2022-11-22T05:19:15.097Z,94953.38
2022-11-22T05:21:41.520Z,94953.56
2022-11-22T05:24:08.183Z,94950.56
2022-11-22T05:26:35.727Z,94949.38
2022-11-22T05:29:06.454Z,94944.28
2022-11-22T05:31:33.866Z,94945.84
2022-11-22T05:34:00.303Z,94946.22
2022-11-22T05:36:26.736Z,94946.59
2022-11-22T05:38:53.283Z,94945.63
2022-11-22T05:41:19.733Z,94947.03
2022-11-22T05:43:46.182Z,94958.81
2022-11-22T05:46:24.304Z,94970.44
2022-11-22T05:48:51.860Z,94967.38
2022-11-22T05:51:22.133Z,94971.06
2022-11-22T05:53:48.619Z,94973.66
2022-11-22T05:56:16.046Z,94969.97
2022-11-22T05:58:42.697Z,94977.00
2022-11-22T06:01:13.314Z,94987.59
2022-11-22T06:03:39.865Z,94983.00
2022-11-22T06:06:06.923Z,94978.69
2022-11-22T06:08:33.835Z,94987.88
2022-11-22T06:11:15.501Z,94989.88
2022-11-22T06:13:42.237Z,94995.47
2022-11-22T06:16:08.821Z,95008.31
2022-11-22T06:18:35.397Z,95008.56
2022-11-22T06:21:06.543Z,95010.38
2022-11-22T06:23:33.236Z,95021.59
2022-11-22T06:26:04.414Z,95022.34
2022-11-22T06:28:31.443Z,95023.13
2022-11-22T06:31:04.845Z,95034.81
2022-11-22T06:33:31.447Z,95031.97
2022-11-22T06:36:04.924Z,95036.09
2022-11-22T06:38:31.468Z,95027.38
2022-11-22T06:41:04.903Z,95032.88
2022-11-22T06:43:31.896Z,95048.38
2022-11-22T06:45:58.852Z,95053.25
2022-11-22T06:48:26.068Z,95045.66
2022-11-22T06:50:52.490Z,95050.50
2022-11-22T06:53:39.748Z,95051.91
2022-11-22T06:56:09.712Z,95046.09
2022-11-22T06:58:36.303Z,95052.47
2022-11-22T07:01:03.841Z,95060.34
2022-11-22T07:03:30.470Z,95059.34
2022-11-22T07:05:57.109Z,95064.19
2022-11-22T07:08:23.858Z,95065.75
2022-11-22T07:10:50.341Z,95077.72
2022-11-22T07:13:16.782Z,95090.72
2022-11-22T07:15:43.208Z,95077.28
2022-11-22T07:18:09.641Z,95083.72
2022-11-22T07:20:36.075Z,95091.53
2022-11-22T07:23:02.505Z,95095.38
2022-11-22T07:25:28.922Z,95103.38
2022-11-22T07:27:55.378Z,95085.00
2022-11-22T07:30:21.819Z,95101.00
2022-11-22T07:32:48.543Z,95096.25
2022-11-22T07:35:15.088Z,95104.72
2022-11-22T07:37:41.514Z,95100.75
2022-11-22T07:40:08.453Z,95109.31
2022-11-22T07:42:34.837Z,95101.53
2022-11-22T07:45:01.299Z,95107.44
2022-11-22T07:47:27.726Z,95111.88
2022-11-22T07:49:54.576Z,95100.63
2022-11-22T07:52:21.042Z,95106.69
2022-11-22T07:54:47.445Z,95110.28
2022-11-22T07:57:13.859Z,95101.81
2022-11-22T07:59:40.295Z,95101.72
2022-11-22T08:02:06.795Z,95106.56
2022-11-22T08:04:33.358Z,95108.63
2022-11-22T08:06:59.782Z,95105.84
2022-11-22T08:09:26.256Z,95114.63
2022-11-22T08:11:52.672Z,95100.19
2022-11-22T08:14:19.101Z,95104.88
2022-11-22T08:16:45.551Z,95090.53
2022-11-22T08:19:17.285Z,95096.66
2022-11-22T08:21:44.254Z,95101.72
2022-11-22T08:24:10.755Z,95085.47
2022-11-22T08:26:37.215Z,95092.88
2022-11-22T08:29:04.514Z,95099.75
2022-11-22T08:31:31.082Z,95084.66
2022-11-22T08:33:57.488Z,95095.94
2022-11-22T08:36:24.051Z,95103.09
2022-11-22T08:38:50.459Z,95102.19
2022-11-22T08:41:16.897Z,95109.09
2022-11-22T08:43:43.300Z,95107.06
2022-11-22T08:46:09.771Z,95116.53
2022-11-22T08:48:36.599Z,95112.72
2022-11-22T08:51:04.339Z,95113.25
2022-11-22T08:53:31.889Z,95121.44
2022-11-22T08:56:01.741Z,95125.53
2022-11-22T08:58:31.625Z,95133.81
2022-11-22T09:00:58.747Z,95137.69
2022-11-22T09:03:25.205Z,95130.53
2022-11-22T09:08:40.430Z,95145.31
2022-11-22T09:11:17.471Z,95150.50
2022-11-22T09:13:44.039Z,95150.28
2022-11-22T09:16:11.398Z,95155.84
2022-11-22T09:18:37.826Z,95162.09
2022-11-22T09:21:05.759Z,95166.13
2022-11-22T09:23:32.441Z,95162.09
2022-11-22T09:25:58.936Z,95168.25
2022-11-22T09:28:26.131Z,95169.88
2022-11-22T09:30:58.594Z,95175.44
2022-11-22T09:33:25.050Z,95172.25
2022-11-22T09:35:51.484Z,95177.06
2022-11-22T09:38:17.909Z,95167.19
2022-11-22T09:40:47.421Z,95151.25
2022-11-22T09:43:19.462Z,95150.06
2022-11-22T09:46:06.144Z,95157.09
2022-11-22T09:48:49.539Z,95154.50
2022-11-22T09:51:17.678Z,95144.47
2022-11-22T09:53:45.872Z,95151.28
2022-11-22T09:56:13.022Z,95144.84
2022-11-22T09:58:43.694Z,95144.03
2022-11-22T10:01:10.203Z,95140.44
2022-11-22T10:03:51.816Z,95136.63
2022-11-22T10:06:20.831Z,95116.72
2022-11-22T10:09:10.749Z,95130.38
2022-11-22T10:11:41.214Z,95115.09
2022-11-22T10:14:39.997Z,95128.81
2022-11-22T10:17:06.402Z,95137.44
2022-11-22T10:19:38.263Z,95130.69
2022-11-22T10:22:10.181Z,95125.13
2022-11-22T10:24:36.623Z,95132.00
2022-11-22T10:27:03.054Z,95121.47
2022-11-22T10:29:32.653Z,95124.78
2022-11-22T10:32:19.980Z,95122.75
2022-11-22T10:34:49.366Z,95126.38
2022-11-22T10:37:22.748Z,95125.91
2022-11-22T10:39:55.352Z,95121.22
2022-11-22T10:42:37.118Z,95127.81
2022-11-22T10:45:06.666Z,95126.41
2022-11-22T10:47:39.307Z,95117.53
2022-11-22T10:50:13.587Z,95114.50
2022-11-22T10:52:44.551Z,95098.44
2022-11-22T10:55:19.011Z,95100.63
2022-11-22T10:57:45.427Z,95107.03
2022-11-22T11:00:19.296Z,95107.66
2022-11-22T11:02:48.791Z,95114.31
2022-11-22T11:05:16.599Z,95099.81
2022-11-22T11:07:44.194Z,95103.41
2022-11-22T11:10:29.515Z,95096.94
2022-11-22T11:13:01.789Z,95102.81
2022-11-22T11:15:55.766Z,95100.00
2022-11-22T11:18:25.304Z,95098.78
2022-11-22T11:20:53.739Z,95087.13
2022-11-22T11:23:20.431Z,95091.31
2022-11-22T11:25:47.861Z,95091.66
2022-11-22T11:28:27.322Z,95094.09
2022-11-22T11:30:58.417Z,95076.75
2022-11-22T11:33:26.504Z,95072.81
2022-11-22T11:35:55.241Z,95062.56
2022-11-22T11:38:27.983Z,95071.25
2022-11-22T11:40:54.405Z,95074.88
2022-11-22T11:43:21.730Z,95079.72
2022-11-22T11:45:48.417Z,95078.50
2022-11-22T11:48:30.650Z,95084.53
2022-11-22T11:51:17.101Z,95085.75
2022-11-22T11:53:51.165Z,95094.19
2022-11-22T11:56:18.763Z,95081.72
2022-11-22T11:58:49.933Z,95090.38
2022-11-22T12:01:18.339Z,95093.97
2022-11-22T12:03:50.641Z,95087.38
2022-11-22T12:06:17.354Z,95086.53
2022-11-22T12:08:43.849Z,95085.31
2022-11-22T12:11:12.214Z,95092.19
2022-11-22T12:14:18.532Z,95093.63
2022-11-22T12:16:34.264Z,95102.25
2022-11-22T12:19:05.861Z,95097.84
2022-11-22T12:21:36.935Z,95082.97
2022-11-22T12:24:34.810Z,95106.88
2022-11-22T12:26:54.320Z,95095.22
2022-11-22T12:29:20.775Z,95082.78
2022-11-22T12:32:19.712Z,95089.38
2022-11-22T12:34:57.335Z,95085.56
2022-11-22T12:37:28.473Z,95091.41
2022-11-22T12:39:55.787Z,95107.47
2022-11-22T12:42:24.367Z,95101.44
2022-11-22T12:44:58.451Z,95093.78
2022-11-22T12:47:26.101Z,95091.38
2022-11-22T12:49:56.591Z,95098.84
2022-11-22T12:52:23.327Z,95095.03
2022-11-22T12:54:49.788Z,95099.44
2022-11-22T12:57:21.265Z,95100.44
2022-11-22T13:00:05.333Z,95092.00
2022-11-22T13:02:34.899Z,95092.59
2022-11-22T13:05:05.835Z,95098.25
2022-11-22T13:07:35.418Z,95100.03
2022-11-22T13:10:04.229Z,95094.81
2022-11-22T13:12:34.632Z,95105.47
2022-11-22T13:15:01.775Z,95098.66
2022-11-22T13:17:31.292Z,95105.47
2022-11-22T13:19:59.679Z,95092.81
2022-11-22T13:22:35.295Z,95091.78
2022-11-22T13:25:01.727Z,95093.63
2022-11-22T13:27:29.378Z,95086.97
2022-11-22T13:29:56.648Z,95086.78
2022-11-22T13:32:23.926Z,95098.41
2022-11-22T13:35:07.963Z,95093.19
2022-11-22T13:37:44.198Z,95099.81
2022-11-22T13:40:16.690Z,95088.97
2022-11-22T13:42:43.203Z,95095.41
2022-11-22T13:45:19.977Z,95090.56
2022-11-22T13:47:46.381Z,95101.03
2022-11-22T13:50:31.650Z,95103.03
2022-11-22T13:52:58.062Z,95093.38
2022-11-22T13:55:29.047Z,95090.97
2022-11-22T13:57:55.575Z,95094.59
2022-11-22T14:00:22.122Z,95093.78
2022-11-22T14:02:52.154Z,95082.13
2022-11-22T14:05:21.734Z,95086.75
2022-11-22T14:07:51.919Z,95079.91
2022-11-22T14:10:29.228Z,95072.69
2022-11-22T14:12:58.682Z,95076.09
2022-11-22T14:15:27.451Z,95072.09
2022-11-22T14:18:03.120Z,95067.25
2022-11-22T14:20:44.767Z,95075.50
2022-11-22T14:23:29.997Z,95067.66
2022-11-22T14:26:19.858Z,95075.69
2022-11-22T14:28:59.642Z,95073.09
2022-11-22T14:31:32.774Z,95072.88
2022-11-22T14:34:18.151Z,95068.66
2022-11-22T14:36:44.922Z,95070.06
2022-11-22T14:39:33.691Z,95065.44
2022-11-22T14:42:00.351Z,95071.28
2022-11-22T14:44:27.926Z,95065.25
2022-11-22T14:47:10.346Z,95067.47
2022-11-22T14:49:44.327Z,95061.84
2022-11-22T14:52:20.873Z,95074.28
2022-11-22T14:54:48.695Z,95068.66
2022-11-22T14:57:21.710Z,95061.63
2022-11-22T14:59:51.159Z,95071.69
2022-11-22T15:02:36.550Z,95080.94
2022-11-22T15:09:11.672Z,95086.97
2022-11-22T15:09:13.689Z,95077.94
2022-11-22T15:11:07.450Z,95069.06
2022-11-22T15:13:57.233Z,95074.72
2022-11-22T15:59:30.571Z,95072.88
2022-11-22T16:01:58.319Z,95093.19
2022-11-22T16:04:31.376Z,95092.97
2022-11-22T16:06:59.386Z,95099.81
2022-11-22T16:09:29.131Z,95106.84
2022-11-22T16:12:01.265Z,95112.28
2022-11-22T16:14:39.957Z,95104.44
2022-11-22T16:17:24.782Z,95105.84
2022-11-22T16:19:51.260Z,95121.31
2022-11-22T16:22:30.973Z,95119.50
2022-11-22T16:25:16.165Z,95123.34
2022-11-22T16:27:46.423Z,95123.94
2022-11-22T16:30:13.062Z,95122.53
2022-11-22T16:32:39.489Z,95130.75
2022-11-22T16:35:29.166Z,95126.94
2022-11-22T16:37:56.209Z,95124.91
2022-11-22T16:40:22.629Z,95128.31
2022-11-22T16:42:49.062Z,95129.97
2022-11-22T16:45:16.354Z,95123.53
2022-11-22T16:47:43.237Z,95133.34
2022-11-22T16:50:13.488Z,95129.91
2022-11-22T16:52:40.458Z,95137.75
2022-11-22T16:55:10.403Z,95137.16
2022-11-22T16:57:36.831Z,95141.38
2022-11-22T17:00:03.430Z,95138.75
2022-11-22T17:02:29.895Z,95151.63
2022-11-22T17:04:56.306Z,95148.19
2022-11-22T17:07:23.040Z,95154.81
2022-11-22T17:09:51.093Z,95165.66
2022-11-22T17:12:19.605Z,95165.44
2022-11-22T17:14:48.488Z,95161.22
2022-11-22T17:17:15.147Z,95163.22
2022-11-22T17:19:57.012Z,95169.25
2022-11-22T17:22:23.508Z,95152.38
2022-11-22T17:24:49.906Z,95169.44
2022-11-22T17:27:16.366Z,95171.25
2022-11-22T17:29:50.206Z,95168.44
2022-11-22T17:32:16.960Z,95161.59
2022-11-22T17:34:43.392Z,95174.66
2022-11-22T17:37:13.140Z,95176.66
2022-11-22T17:39:39.841Z,95170.63
2022-11-22T17:42:06.801Z,95176.88
2022-11-22T17:44:34.160Z,95170.03
2022-11-22T17:47:00.661Z,95177.47
2022-11-22T17:49:27.406Z,95187.94
2022-11-22T17:51:54.053Z,95174.66
2022-11-22T17:54:20.502Z,95188.72
2022-11-22T17:56:46.984Z,95186.13
2022-11-22T17:59:13.401Z,95193.53
2022-11-22T18:01:39.930Z,95195.34
2022-11-22T18:04:06.389Z,95194.53
2022-11-22T18:06:32.869Z,95201.63
2022-11-22T18:09:00.362Z,95205.41
2022-11-22T18:11:26.838Z,95202.78
2022-11-22T18:13:53.295Z,95209.81
2022-11-22T18:16:19.812Z,95205.41
2022-11-22T18:19:01.791Z,95213.09
2022-11-22T18:21:31.933Z,95213.50
2022-11-22T18:23:58.722Z,95214.28
2022-11-22T18:26:41.651Z,95207.66
2022-11-22T18:31:55.409Z,95214.28
2022-11-22T18:34:22.510Z,95214.69
2022-11-22T18:36:55.464Z,95217.13
2022-11-22T18:39:22.936Z,95219.13
2022-11-22T18:41:49.394Z,95227.34
2022-11-22T18:44:15.867Z,95228.38
2022-11-22T18:46:42.323Z,95222.34
2022-11-22T18:49:08.948Z,95224.75
2022-11-22T18:51:35.420Z,95238.81
2022-11-22T18:54:01.889Z,95226.94
2022-11-22T18:56:28.442Z,95220.31
2022-11-22T18:58:54.882Z,95219.94
2022-11-22T19:01:21.880Z,95221.94
2022-11-22T19:03:48.379Z,95236.81
2022-11-22T19:06:15.503Z,95218.72
2022-11-22T19:08:42.166Z,95231.16
2022-11-22T19:11:08.657Z,95239.84
2022-11-22T19:13:35.715Z,95241.63
2022-11-22T19:16:09.162Z,95232.19
2022-11-22T19:18:41.287Z,95242.69
2022-11-22T19:21:09.427Z,95226.00
2022-11-22T19:23:36.106Z,95227.38
2022-11-22T19:26:06.317Z,95228.38
2022-11-22T19:28:32.969Z,95228.97
2022-11-22T19:31:03.315Z,95224.34
2022-11-22T19:33:29.811Z,95232.38
2022-11-22T19:35:57.084Z,95235.00
2022-11-22T19:38:23.565Z,95232.59
2022-11-22T19:40:49.964Z,95224.41
2022-11-22T19:43:16.762Z,95230.78
2022-11-22T19:45:43.410Z,95238.47
2022-11-22T19:48:09.830Z,95238.06
2022-11-22T19:50:39.375Z,95233.25
2022-11-22T19:53:05.916Z,95237.47
2022-11-22T19:55:43.630Z,95226.63
2022-11-22T19:58:11.817Z,95227.81
2022-11-22T20:00:38.282Z,95231.22
2022-11-22T20:03:04.697Z,95227.22
2022-11-22T20:05:34.336Z,95247.06
2022-11-22T20:08:00.775Z,95249.53
2022-11-22T20:10:27.311Z,95253.34
2022-11-22T20:12:53.746Z,95257.31
2022-11-22T20:15:20.207Z,95258.13
2022-11-22T20:17:46.655Z,95252.53
2022-11-22T20:20:13.057Z,95257.19
2022-11-22T20:22:39.490Z,95251.34
2022-11-22T20:25:06.235Z,95255.75
2022-11-22T20:27:32.822Z,95258.41
2022-11-22T20:30:01.380Z,95251.56
2022-11-22T20:32:30.946Z,95253.56
2022-11-22T20:34:57.570Z,95246.97
2022-11-22T20:37:24.034Z,95260.84
2022-11-22T20:39:50.484Z,95256.44
2022-11-22T20:42:46.827Z,95259.25
2022-11-22T20:45:08.469Z,95277.13
2022-11-22T20:47:35.216Z,95267.09
2022-11-22T20:50:01.734Z,95272.09
2022-11-22T20:52:28.210Z,95276.72
2022-11-22T20:54:54.777Z,95266.28
2022-11-22T20:57:21.408Z,95265.69
2022-11-22T20:59:47.819Z,95274.94
2022-11-22T21:02:14.288Z,95288.41
2022-11-22T21:04:40.783Z,95274.53
2022-11-22T21:07:07.276Z,95276.75
2022-11-22T21:09:33.793Z,95278.75
2022-11-22T21:12:00.267Z,95281.97
2022-11-22T21:14:26.693Z,95277.94
2022-11-22T21:16:53.202Z,95289.25
2022-11-22T21:19:19.753Z,95291.03
2022-11-22T21:21:46.248Z,95288.81
2022-11-22T21:24:13.626Z,95294.03
2022-11-22T21:26:40.694Z,95287.19
2022-11-22T21:29:15.949Z,95284.38
2022-11-22T21:31:43.085Z,95294.03
2022-11-22T21:34:09.574Z,95298.84
2022-11-22T21:36:35.991Z,95288.59
2022-11-22T21:39:02.402Z,95289.19
2022-11-22T21:41:44.080Z,95299.66
2022-11-22T21:44:11.012Z,95300.25
2022-11-22T21:46:37.752Z,95299.47
2022-11-22T21:49:04.168Z,95295.63
2022-11-22T21:51:31.930Z,95301.28
2022-11-22T21:53:59.041Z,95307.31
2022-11-22T21:56:25.876Z,95299.66
2022-11-22T21:58:52.302Z,95310.13
2022-11-22T22:01:18.880Z,95312.19
2022-11-22T22:03:45.335Z,95298.47
2022-11-22T22:06:11.810Z,95302.13
2022-11-22T22:08:38.616Z,95303.53
2022-11-22T22:11:05.533Z,95299.31
2022-11-22T22:13:32.345Z,95308.16
2022-11-22T22:15:59.522Z,95302.53
2022-11-22T22:18:29.746Z,95305.53
2022-11-22T22:21:02.824Z,95303.34
2022-11-22T22:23:29.453Z,95308.38
2022-11-22T22:26:00.059Z,95299.31
2022-11-22T22:28:30.309Z,95305.16
2022-11-22T22:31:06.141Z,95303.75
2022-11-22T22:33:32.819Z,95307.56
2022-11-22T22:35:59.640Z,95295.69
2022-11-22T22:38:26.161Z,95305.75
2022-11-22T22:40:54.074Z,95306.97
2022-11-22T22:43:20.914Z,95302.94
2022-11-22T22:45:47.326Z,95306.97
2022-11-22T22:48:13.781Z,95310.78
2022-11-22T22:50:40.189Z,95307.97
2022-11-22T22:53:06.623Z,95316.81
2022-11-22T22:55:33.054Z,95306.16
2022-11-22T22:58:00.069Z,95311.38
2022-11-22T23:00:26.513Z,95318.22
2022-11-22T23:02:53.255Z,95315.00
2022-11-22T23:05:19.805Z,95328.69
2022-11-22T23:07:46.358Z,95317.41
2022-11-22T23:10:12.815Z,95314.81
2022-11-22T23:12:39.281Z,95314.81
2022-11-22T23:15:06.057Z,95311.38
2022-11-22T23:17:32.563Z,95305.75
2022-11-22T23:19:58.967Z,95319.44
2022-11-22T23:22:26.139Z,95312.19
2022-11-22T23:24:52.685Z,95319.22
2022-11-22T23:27:19.173Z,95326.06
2022-11-22T23:29:45.594Z,95318.22
2022-11-22T23:32:12.003Z,95320.22
2022-11-22T23:34:38.412Z,95329.47
2022-11-22T23:37:04.843Z,95328.06
2022-11-22T23:39:31.506Z,95316.22
2022-11-22T23:41:58.251Z,95324.44
2022-11-22T23:44:24.731Z,95324.06
2022-11-22T23:46:51.189Z,95321.03
2022-11-22T23:49:17.585Z,95334.94
2022-11-22T23:51:44.065Z,95327.28
2022-11-22T23:54:10.454Z,95324.28
2022-11-22T23:56:37.204Z,95327.28
2022-11-22T23:59:05.141Z,95329.91
